Japatul Valley Rd (73, 1166, 625) Station Data

Red Flag Warning: No
Fire Weather Zone: 258
SDGE Region: Mountain Empire
Lat/Lon: 32.776/-116.668

Observations

Time Wind Speed/Gust Temp(F) RH Fuel Moist Fuel Temp(F) Dewpt(F) Tmax(F) Tmin(F) Accum Precip 10-min Precip SL Press(mb)
6/22 5:00am 59 3 G 5 75° 16% - - 26° 78.6° 71.7° - - -
6/22 4:50am 61 4 G 7 75° 17% - - 27° 78.6° 71.7° - - -
6/22 4:40am 59 4 G 7 75° 17% - - 28° 78.6° 71.7° - - -
6/22 4:30am 62 3 G 4 74° 18% - - 28° 78.6° 71.7° - - -
6/22 4:20am 72 3 G 5 74° 20% - - 30° 78.6° 71.7° - - -
6/22 4:10am 73 3 G 5 74° 21% - - 32° 78.6° 71.7° - - -
6/22 4:00am 81 3 G 5 73° 23% - - 34° 78.6° 71.7° - - -
6/22 3:50am 67 3 G 5 75° 23% - - 34° 78.6° 71.7° - - -
6/22 3:40am 54 4 G 6 75° 24% - - 35° 78.6° 71.7° - - -
6/22 3:30am 61 4 G 6 75° 27% - - 38° 78.6° 71.7° - - -
6/22 3:20am 58 4 G 5 74° 28% - - 39° 78.6° 71.7° - - -
6/22 3:10am 63 3 G 5 75° 32% - - 43° 78.6° 71.7° - - -
6/22 3:00am 60 2 G 3 74° 33% - - 43° 78.6° 71.7° - - -
6/22 2:50am 59 2 G 3 75° 35% - - 45° 78.6° 71.7° - - -
6/22 2:40am 59 2 G 3 74° 37% - - 47° 78.6° 71.7° - - -
6/22 2:30am 57 2 G 3 74° 38% - - 47° 78.6° 71.7° - - -
6/22 2:20am 58 2 G 3 72° 43% - - 49° 78.6° 71.7° - - -
6/22 2:10am 65 2 G 3 74° 45% - - 51° 78.6° 72.7° - - -
6/22 2:00am 64 2 G 3 75° 49% - - 54° 78.6° 74.1° - - -
6/22 1:50am 63 2 G 2 76° 49% - - 55° 78.6° 75.4° - - -
6/22 1:40am 57 1 G 1 76° 48% - - 55° 78.6° 75.8° - - -
6/22 1:30am 39 1 G 1 76° 47% - - 55° 78.6° 75.8° - - -
6/22 1:20am 254 0 G 1 76° 47% - - 55° 78.6° 75.8° - - -
6/22 1:10am 254 0 G 2 77° 45% - - 54° 78.6° 76.1° - - -
6/22 1:00am 44 0 G 1 77° 40% - - 51° 78.6° 76.1° - - -
6/22 12:50am 55 1 G 2 77° 40% - - 51° 78.6° 76.1° - - -
6/22 12:40am 66 1 G 2 77° 44% - - 53° 78.6° 76.1° - - -
6/22 12:30am 58 2 G 2 77° 44% - - 54° 78.6° 76.5° - - -
6/22 12:20am 56 2 G 3 77° 44% - - 54° 78.6° 76.5° - - -
6/22 12:10am 52 1 G 2 78° 44% - - 54° 78.3° 77° - - -
6/22 12:00am 56 2 G 3 78° 44% - - 54° 96.6° 76.5° - - -
6/21 11:50pm 3 2 G 2 80° 42% - - 54° 96.6° 76.5° - - -
6/21 11:40pm 334 3 G 3 80° 41% - - 54° 96.6° 76.5° - - -
6/21 11:30pm 358 2 G 3 80° 41% - - 54° 96.6° 76.5° - - -
6/21 11:20pm 8 2 G 2 80° 41% - - 54° 96.6° 76.5° - - -
6/21 11:10pm 344 2 G 2 81° 40% - - 55° 96.6° 76.5° - - -
6/21 11:00pm 353 1 G 2 81° 41% - - 55° 96.6° 76.5° - - -
6/21 10:50pm 38 2 G 4 80° 40% - - 54° 96.6° 76.5° - - -
6/21 10:40pm 50 2 G 4 79° 43% - - 54° 96.6° 76.5° - - -
6/21 10:30pm 59 2 G 3 79° 43% - - 55° 96.6° 76.5° - - -
6/21 10:20pm 54 2 G 3 80° 42% - - 55° 96.6° 76.5° - - -
6/21 10:10pm 49 2 G 3 80° 43% - - 55° 96.6° 76.5° - - -
6/21 10:00pm 56 2 G 3 79° 44% - - 56° 96.6° 76.5° - - -
6/21 9:50pm 49 2 G 3 79° 46% - - 56° 96.6° 76.5° - - -
6/21 9:40pm 56 2 G 3 78° 48% - - 56° 96.6° 76.5° - - -
6/21 9:30pm 58 3 G 4 78° 48% - - 56° 96.6° 76.5° - - -
6/21 9:20pm 62 3 G 4 79° 46% - - 56° 96.6° 76.5° - - -
6/21 9:10pm 20 3 G 4 80° 44% - - 57° 96.6° 76.5° - - -
6/21 9:00pm 23 3 G 4 80° 45% - - 57° 96.6° 76.5° - - -
6/21 8:50pm 17 3 G 4 80° 45% - - 57° 96.6° 76.5° - - -
6/21 8:40pm 23 3 G 4 80° 45% - - 57° 96.6° 76.5° - - -
6/21 8:30pm 21 2 G 4 81° 45% - - 57° 96.6° 76.5° - - -
6/21 8:20pm 23 2 G 3 81° 46% - - 58° 96.6° 76.5° - - -
6/21 8:10pm 44 1 G 3 80° 48% - - 59° 96.6° 76.5° - - -
6/21 8:00pm 319 1 G 1 82° 45% - - 58° 96.6° 76.5° - - -
6/21 7:50pm 294 1 G 1 83° 44% - - 58° 96.6° 76.5° - - -
6/21 7:40pm 303 1 G 2 83° 43% - - 58° 96.6° 76.5° - - -
6/21 7:30pm 277 0 G 1 84° 42% - - 59° 96.6° 76.5° - - -
6/21 7:20pm 276 1 G 2 84° 43% - - 59° 96.6° 76.5° - - -
6/21 7:10pm 252 2 G 4 84° 42% - - 58° 96.6° 76.5° - - -
6/21 7:00pm 255 3 G 5 84° 42% - - 58° 96.6° 76.5° - - -
6/21 6:50pm 252 3 G 6 85° 40% - - 58° 96.6° 76.5° - - -
6/21 6:40pm 255 4 G 6 85° 40% - - 58° 96.6° 76.5° - - -
6/21 6:30pm 252 5 G 9 85° 39% - - 57° 96.6° 76.5° - - -
6/21 6:20pm 257 6 G 11 86° 36% - - 56° 96.6° 76.5° - - -
6/21 6:10pm 261 5 G 10 86° 32% - - 53° 96.6° 76.5° - - -
6/21 6:00pm 252 6 G 10 87° 33% - - 54° 96.6° 76.5° - - -
6/21 5:50pm 251 6 G 10 87° 33% - - 54° 96.6° 76.5° - - -
6/21 5:40pm 245 6 G 11 87° 35% - - 56° 96.6° 76.5° - - -
6/21 5:30pm 252 6 G 10 88° 34% - - 56° 96.6° 76.5° - - -
6/21 5:20pm 254 6 G 11 88° 35% - - 56° 96.6° 76.5° - - -
6/21 5:10pm 255 6 G 10 88° 35% - - 57° 96.6° 76.5° - - -
6/21 5:00pm 252 7 G 11 88° 35% - - 57° 96.6° 76.5° - - -
6/21 4:50pm 254 7 G 11 88° 36% - - 58° 96.6° 76.5° - - -
6/21 4:40pm 248 7 G 11 89° 36% - - 58° 96.6° 76.5° - - -
6/21 4:30pm 248 8 G 12 89° 34% - - 57° 96.6° 76.5° - - -
6/21 4:20pm 249 8 G 12 90° 32% - - 56° 96.6° 76.5° - - -
6/21 4:10pm 251 8 G 12 91° 29% - - 54° 96.6° 76.5° - - -
6/21 4:00pm 243 8 G 12 91° 27% - - 53° 96.6° 76.5° - - -
6/21 3:50pm 247 8 G 12 91° 27% - - 53° 96.6° 76.5° - - -
6/21 3:40pm 249 7 G 13 92° 26% - - 52° 96.6° 76.5° - - -
6/21 3:30pm 252 8 G 15 91° 27% - - 53° 96.6° 76.5° - - -
6/21 3:20pm 244 9 G 14 92° 27% - - 53° 96.6° 76.5° - - -
6/21 3:10pm 250 8 G 14 92° 26% - - 53° 96.6° 76.5° - - -
6/21 3:00pm 252 8 G 13 92° 27% - - 53° 96.6° 76.5° - - -
6/21 2:50pm 253 8 G 15 92° 28% - - 54° 96.6° 76.5° - - -
6/21 2:40pm 248 9 G 15 92° 29% - - 56° 96.6° 76.5° - - -
6/21 2:30pm 251 8 G 14 94° 27% - - 55° 96.6° 76.5° - - -
6/21 2:20pm 254 8 G 12 94° 26% - - 53° 96.6° 76.5° - - -
6/21 2:10pm 257 8 G 14 95° 23% - - 52° 96.6° 76.5° - - -
6/21 2:00pm 255 7 G 13 95° 21% - - 49° 96.6° 76.5° - - -
6/21 1:50pm 251 8 G 12 95° 20% - - 48° 96.6° 76.5° - - -
6/21 1:40pm 253 8 G 14 95° 19% - - 47° 96.6° 76.5° - - -
6/21 1:30pm 245 8 G 12 95° 20% - - 47° 96.1° 76.5° - - -
6/21 1:20pm 245 8 G 13 95° 20% - - 47° 96.1° 76.5° - - -
6/21 1:10pm 246 8 G 11 95° 18% - - 45° 95.6° 76.5° - - -
6/21 1:00pm 251 7 G 15 94° 20% - - 47° 95.6° 76.5° - - -
6/21 12:50pm 245 8 G 14 94° 21% - - 48° 95.6° 76.5° - - -
6/21 12:40pm 250 8 G 12 94° 21% - - 48° 95.6° 76.5° - - -
6/21 12:30pm 252 8 G 14 94° 21% - - 47° 95.6° 76.5° - - -
6/21 12:20pm 247 9 G 14 94° 19% - - 46° 95.6° 76.5° - - -
6/21 12:10pm 249 8 G 13 95° 19% - - 46° 95.6° 76.5° - - -
6/21 12:00pm 254 7 G 12 94° 19% - - 45° 95.6° 76.5° - - -
6/21 11:50am 251 7 G 11 94° 18% - - 45° 95.6° 76.5° - - -
6/21 11:40am 249 7 G 12 94° 18% - - 44° 95.6° 76.5° - - -
6/21 11:30am 250 6 G 11 94° 18% - - 44° 95.6° 76.5° - - -
6/21 11:20am 250 7 G 12 94° 18% - - 44° 95.6° 76.5° - - -
6/21 11:10am 247 7 G 10 94° 19% - - 46° 95.2° 76.5° - - -
6/21 11:00am 244 7 G 10 93° 20% - - 46° 94° 76.5° - - -
6/21 10:50am 249 7 G 11 93° 20% - - 46° 93.8° 76.5° - - -
6/21 10:40am 247 7 G 10 93° 20% - - 45° 93.8° 76.5° - - -
6/21 10:30am 245 7 G 10 92° 19% - - 45° 92.9° 76.5° - - -
6/21 10:20am 243 7 G 10 92° 19% - - 44° 92.6° 76.5° - - -
6/21 10:10am 243 7 G 10 92° 18% - - 42° 92.4° 76.5° - - -
6/21 10:00am 243 7 G 9 91° 16% - - 40° 92.4° 76.5° - - -
6/21 9:50am 242 6 G 9 91° 17% - - 40° 92.1° 76.5° - - -
6/21 9:40am 240 5 G 9 91° 18% - - 41° 91.9° 76.5° - - -
6/21 9:30am 223 5 G 8 90° 19% - - 42° 91.1° 76.5° - - -
6/21 9:20am 214 4 G 7 90° 19% - - 42° 91.1° 76.5° - - -
6/21 9:10am 220 4 G 7 90° 19% - - 42° 91.1° 76.5° - - -
6/21 9:00am 219 3 G 6 90° 19% - - 42° 91.1° 76.5° - - -
6/21 8:50am 211 3 G 5 90° 18% - - 41° 91.1° 76.5° - - -
6/21 8:40am 205 2 G 3 89° 20% - - 43° 91.1° 76.5° - - -
6/21 8:30am 215 1 G 4 90° 19% - - 42° 91.1° 76.5° - - -
6/21 8:20am 74 1 G 1 90° 17% - - 40° 91.1° 76.5° - - -
6/21 8:10am 36 1 G 2 89° 17% - - 39° 89.9° 76.5° - - -
6/21 8:00am 29 1 G 3 88° 21% - - 43° 88.6° 76.5° - - -
6/21 7:50am 45 2 G 3 85° 24% - - 44° 86.5° 76.5° - - -
6/21 7:40am 49 1 G 2 85° 25% - - 45° 86° 76.5° - - -
6/21 7:30am 11 1 G 2 85° 20% - - 40° 85.6° 76.5° - - -
6/21 7:20am 23 3 G 4 84° 18% - - 36° 84.5° 76.5° - - -
6/21 7:10am 29 3 G 5 83° 18% - - 35° 83.6° 76.5° - - -
6/21 7:00am 26 3 G 4 82° 19% - - 35° 82.4° 76.5° - - -
6/21 6:50am 23 3 G 4 81° 18% - - 34° 82.3° 76.5° - - -
6/21 6:40am 20 3 G 5 82° 17% - - 33° 82.3° 76.5° - - -
6/21 6:30am 24 3 G 5 81° 17% - - 32° 82.2° 76.5° - - -
6/21 6:20am 24 3 G 5 80° 18% - - 32° 82° 76.5° - - -
6/21 6:10am 28 4 G 5 80° 18% - - 33° 82° 76.5° - - -
6/21 6:00am 30 4 G 5 79° 19% - - 33° 82° 76.5° - - -
6/21 5:50am 26 4 G 6 79° 19% - - 34° 82° 76.5° - - -
6/21 5:40am 16 4 G 6 80° 19% - - 34° 82° 76.5° - - -
6/21 5:30am 15 5 G 6 81° 19% - - 34° 82° 76.5° - - -
6/21 5:20am 21 4 G 6 81° 19% - - 35° 82° 76.5° - - -
6/21 5:10am 22 4 G 6 81° 19% - - 36° 82° 76.5° - - -
6/21 5:00am 13 5 G 6 81° 20% - - 36° 82° 76.5° - - -
6/21 4:50am 20 4 G 6 80° 21% - - 37° 82° 76.5° - - -
6/21 4:40am 24 4 G 6 80° 22% - - 37° 82° 76.5° - - -
6/21 4:30am 28 4 G 6 80° 24% - - 40° 82° 76.5° - - -
6/21 4:20am 26 3 G 4 80° 27% - - 43° 82° 76.5° - - -
6/21 4:10am 14 3 G 5 80° 29% - - 44° 82° 76.5° - - -
6/21 4:00am 13 4 G 5 80° 30% - - 45° 82° 76.5° - - -
6/21 3:50am 14 4 G 5 80° 31% - - 47° 82° 76.5° - - -
6/21 3:40am 14 4 G 5 79° 33% - - 47° 82° 76.5° - - -
6/21 3:30am 10 4 G 5 79° 33% - - 48° 82° 76.5° - - -
6/21 3:20am 5 3 G 4 80° 33% - - 48° 82° 76.5° - - -
6/21 3:10am 19 3 G 4 80° 34% - - 49° 82° 76.5° - - -
6/21 3:00am 20 2 G 3 78° 35% - - 49° 82° 76.5° - - -
6/21 2:50am 20 2 G 3 78° 35% - - 49° 82° 76.5° - - -
6/21 2:40am 25 2 G 2 78° 35% - - 49° 82° 76.5° - - -
6/21 2:30am 10 2 G 4 78° 35% - - 48° 82° 76.5° - - -
6/21 2:20am 8 3 G 4 79° 34% - - 48° 82° 76.5° - - -
6/21 2:10am 14 3 G 4 79° 33% - - 48° 82° 76.5° - - -
6/21 2:00am 358 2 G 4 80° 32% - - 48° 82° 76.5° - - -
6/21 1:50am 18 1 G 2 79° 32% - - 47° 82° 76.5° - - -
6/21 1:40am 15 2 G 3 80° 31% - - 47° 82° 76.5° - - -
6/21 1:30am 21 3 G 4 81° 30% - - 47° 82° 76.5° - - -
6/21 1:20am 21 3 G 4 81° 30% - - 46° 82° 76.5° - - -
6/21 1:10am 17 3 G 4 80° 29% - - 45° 82° 76.5° - - -
6/21 1:00am 22 3 G 5 81° 28% - - 44° 82° 76.5° - - -
6/21 12:50am 21 3 G 4 81° 26% - - 44° 82° 76.5° - - -
6/21 12:40am 26 3 G 4 81° 26% - - 43° 81.8° 76.5° - - -
6/21 12:30am 14 3 G 4 81° 26% - - 43° 81.5° 76.5° - - -
6/21 12:20am 33 2 G 3 78° 29% - - 44° 80.3° 76.5° - - -
6/21 12:10am 66 2 G 3 77° 31% - - 44° 77.9° 76.5° - - -
6/21 12:00am 43 2 G 3 79° 29% - - 44° 96.5° 74° - - -
6/20 11:50pm 19 1 G 2 80° 29% - - 44° 96.5° 74° - - -
6/20 11:40pm 19 1 G 2 80° 29% - - 45° 96.5° 74° - - -
6/20 11:30pm 33 2 G 3 80° 29% - - 45° 96.5° 74° - - -
6/20 11:20pm 30 1 G 2 78° 32% - - 46° 96.5° 74° - - -
6/20 11:10pm 34 1 G 3 79° 32% - - 46° 96.5° 74° - - -
6/20 11:00pm 37 3 G 4 80° 31% - - 47° 96.5° 74° - - -
6/20 10:50pm 34 3 G 4 80° 32% - - 48° 96.5° 74° - - -
6/20 10:40pm 28 3 G 5 80° 33% - - 48° 96.5° 74° - - -
6/20 10:30pm 25 3 G 5 80° 34% - - 49° 96.5° 74° - - -
6/20 10:20pm 27 4 G 5 80° 35% - - 50° 96.5° 74° - - -
6/20 10:10pm 26 4 G 6 80° 36% - - 50° 96.5° 74° - - -
6/20 10:00pm 26 3 G 5 79° 38% - - 51° 96.5° 74° - - -
6/20 9:50pm 14 4 G 5 79° 40% - - 52° 96.5° 74° - - -
6/20 9:40pm 20 3 G 5 79° 41% - - 53° 96.5° 74° - - -
6/20 9:30pm 27 3 G 5 79° 42% - - 54° 96.5° 74° - - -
6/20 9:20pm 11 5 G 6 79° 41% - - 54° 96.5° 74° - - -
6/20 9:10pm 17 4 G 5 80° 41% - - 54° 96.5° 74° - - -
6/20 9:00pm 22 3 G 5 80° 41% - - 54° 96.5° 74° - - -
6/20 8:50pm 26 3 G 5 80° 41% - - 54° 96.5° 74° - - -
6/20 8:40pm 30 3 G 5 79° 42% - - 54° 96.5° 74° - - -
6/20 8:30pm 16 3 G 6 80° 41% - - 55° 96.5° 74° - - -
6/20 8:20pm 3 5 G 6 81° 41% - - 55° 96.5° 74° - - -
6/20 8:10pm 19 3 G 4 79° 45% - - 56° 96.5° 74° - - -
6/20 8:00pm 30 1 G 3 79° 45% - - 56° 96.5° 74° - - -
6/20 7:50pm 340 2 G 4 81° 42% - - 56° 96.5° 74° - - -
6/20 7:40pm 355 2 G 4 82° 41% - - 56° 96.5° 74° - - -
6/20 7:30pm 311 1 G 3 84° 40% - - 57° 96.5° 74° - - -
6/20 7:20pm 289 2 G 3 84° 38% - - 56° 96.5° 74° - - -
6/20 7:10pm 282 2 G 5 85° 38% - - 56° 96.5° 74° - - -
6/20 7:00pm 270 3 G 5 85° 37% - - 56° 96.5° 74° - - -
6/20 6:50pm 270 4 G 7 85° 36% - - 56° 96.5° 74° - - -
6/20 6:40pm 272 5 G 8 86° 36% - - 56° 96.5° 74° - - -
6/20 6:30pm 275 6 G 9 87° 35% - - 56° 96.5° 74° - - -
6/20 6:20pm 270 5 G 9 87° 35% - - 56° 96.5° 74° - - -
6/20 6:10pm 272 6 G 11 87° 35% - - 56° 96.5° 74° - - -
6/20 6:00pm 273 5 G 11 88° 35% - - 56° 96.5° 74° - - -